Time;durP1;ratioP1;P1;durP2;ratioP2;P2;SDS_P1;SDS_P2;PMS_P1;PMS_P2;Temp;Humidity;BMP_temperature;BMP_pressure;BME280_temperature;BME280_humidity;BME280_pressure;Samples;Min_cycle;Max_cycle;Signal;HPM_P1;HPM_P2
2022/12/13 00:01:44;;;;;;;13.88;7.30;;;;;;;-3.10;67.87;97096.79;1708383;83;21442;-68
2022/12/13 00:04:12;;;;;;;19.42;7.20;;;;;;;-3.06;67.73;97108.05;1709189;82;21007;-68
2022/12/13 00:06:39;;;;;;;16.35;8.25;;;;;;;-3.05;67.57;97107.19;1711438;83;21001;-67
2022/12/13 00:09:07;;;;;;;16.50;8.03;;;;;;;-3.02;67.69;97108.94;1713921;83;20969;-68
2022/12/13 00:11:34;;;;;;;16.35;8.15;;;;;;;-2.95;67.74;97114.20;1707369;83;21067;-68
2022/12/13 00:14:01;;;;;;;16.48;8.18;;;;;;;-2.87;67.67;97110.38;1709170;82;20966;-68
2022/12/13 00:16:28;;;;;;;17.30;8.38;;;;;;;-2.75;67.70;97110.08;1712728;83;21651;-68
2022/12/13 00:18:58;;;;;;;15.98;8.48;;;;;;;-2.69;67.30;97115.31;1706059;83;20965;-68
2022/12/13 00:21:29;;;;;;;15.55;8.35;;;;;;;-2.64;67.12;97116.22;1713447;83;21026;-68
2022/12/13 00:23:57;;;;;;;15.93;8.70;;;;;;;-2.64;66.97;97118.81;1709352;82;21422;-68
2022/12/13 00:26:28;;;;;;;19.62;9.40;;;;;;;-2.66;66.91;97117.94;1709761;83;21399;-68
2022/12/13 00:28:57;;;;;;;18.55;9.35;;;;;;;-2.68;66.85;97123.53;1698459;83;21000;-68
2022/12/13 00:31:24;;;;;;;22.25;9.75;;;;;;;-2.72;67.02;97130.83;1705911;83;21008;-68
2022/12/13 00:33:52;;;;;;;22.48;9.68;;;;;;;-2.73;67.07;97126.50;1688451;83;21462;-68
2022/12/13 00:36:19;;;;;;;19.48;9.33;;;;;;;-2.75;67.21;97126.48;1704369;83;21438;-68
2022/12/13 00:38:45;;;;;;;20.43;10.70;;;;;;;-2.76;67.36;97122.16;1703184;83;21029;-69
2022/12/13 00:41:19;;;;;;;20.55;11.33;;;;;;;-2.76;67.40;97116.09;1717984;82;21056;-68
2022/12/13 00:43:46;;;;;;;25.60;10.78;;;;;;;-2.77;67.57;97116.95;1710143;83;21462;-67
2022/12/13 00:46:16;;;;;;;23.57;10.03;;;;;;;-2.79;67.43;97115.64;1706781;82;21007;-67
2022/12/13 00:48:44;;;;;;;24.35;11.55;;;;;;;-2.78;67.35;97114.81;1710044;84;21060;-67
2022/12/13 00:51:11;;;;;;;22.13;11.33;;;;;;;-2.79;67.28;97113.92;1695766;82;21398;-68
2022/12/13 00:53:39;;;;;;;20.97;10.85;;;;;;;-2.79;67.50;97106.14;1652889;84;21507;-66
2022/12/13 00:56:14;;;;;;;22.37;11.25;;;;;;;-2.76;67.52;97104.42;1631161;88;21070;-67
2022/12/13 00:58:43;;;;;;;23.87;10.58;;;;;;;-2.72;67.72;97101.00;1634764;87;21476;-68
2022/12/13 01:01:13;;;;;;;21.62;10.48;;;;;;;-2.70;67.60;97110.53;1630908;87;21489;-68
2022/12/13 01:03:41;;;;;;;21.68;10.80;;;;;;;-2.67;67.52;97109.28;1630009;87;21436;-68
2022/12/13 01:06:18;;;;;;;21.52;9.85;;;;;;;-2.67;67.34;97110.58;1673065;84;21024;-67
2022/12/13 01:08:46;;;;;;;22.42;11.73;;;;;;;-2.75;67.28;97113.97;1674236;84;20988;-68
2022/12/13 01:11:14;;;;;;;23.00;11.10;;;;;;;-2.76;67.17;97110.91;1674178;84;21012;-67
2022/12/13 01:13:41;;;;;;;23.18;10.85;;;;;;;-2.81;67.11;97110.88;1672119;84;21426;-68
2022/12/13 01:16:11;;;;;;;22.90;11.48;;;;;;;-2.86;67.01;97106.08;1658534;84;21064;-67
2022/12/13 01:18:40;;;;;;;24.02;10.78;;;;;;;-2.90;67.25;97112.97;1674091;84;21453;-67
2022/12/13 01:21:14;;;;;;;27.45;12.13;;;;;;;-2.87;67.50;97112.13;1667782;84;21496;-68
2022/12/13 01:23:42;;;;;;;23.65;10.72;;;;;;;-2.82;67.45;97118.22;1663006;84;21462;-68
2022/12/13 01:26:16;;;;;;;18.42;9.28;;;;;;;-2.85;67.23;97115.17;1674229;85;21399;-68
2022/12/13 01:28:43;;;;;;;21.82;10.08;;;;;;;-2.86;67.13;97114.70;1674501;84;21047;-67
2022/12/13 01:31:14;;;;;;;20.10;10.55;;;;;;;-2.87;67.05;97114.72;1674226;84;21048;-68
2022/12/13 01:33:42;;;;;;;18.85;10.10;;;;;;;-2.93;66.91;97111.63;1675361;84;21000;-68
2022/12/13 01:36:15;;;;;;;21.17;9.98;;;;;;;-3.01;67.06;97107.66;1666298;84;21003;-68
2022/12/13 01:38:42;;;;;;;15.28;8.23;;;;;;;-2.96;67.48;97109.88;1657575;84;21064;-68
2022/12/13 01:41:19;;;;;;;14.33;7.17;;;;;;;-2.97;67.18;97119.81;1674222;84;21016;-68
2022/12/13 01:43:50;;;;;;;15.65;7.95;;;;;;;-3.05;67.24;97114.97;1674274;84;21063;-68
2022/12/13 01:46:18;;;;;;;20.30;8.88;;;;;;;-3.10;67.42;97118.82;1674334;84;21008;-68
2022/12/13 01:48:53;;;;;;;16.67;8.30;;;;;;;-3.11;67.81;97118.35;1674149;86;21043;-67
2022/12/13 01:51:25;;;;;;;18.32;9.20;;;;;;;-3.07;67.93;97115.39;1674312;84;21028;-67
2022/12/13 01:53:54;;;;;;;14.38;7.90;;;;;;;-3.09;67.88;97117.08;1682375;84;21024;-67
2022/12/13 01:56:26;;;;;;;13.05;6.47;;;;;;;-3.14;67.99;97122.64;1703167;83;21064;-67
2022/12/13 01:58:55;;;;;;;20.75;9.73;;;;;;;-3.12;68.15;97121.80;1709861;83;21009;-67
2022/12/13 02:01:23;;;;;;;14.60;6.87;;;;;;;-3.13;68.07;97127.84;1710109;82;20989;-66
2022/12/13 02:03:50;;;;;;;16.97;8.18;;;;;;;-3.22;67.89;97122.56;1710135;82;21001;-67
2022/12/13 02:06:22;;;;;;;17.55;7.15;;;;;;;-3.26;68.23;97129.44;1709873;83;20981;-67
2022/12/13 02:08:49;;;;;;;14.15;7.08;;;;;;;-3.27;68.23;97125.53;1708850;83;20993;-67
2022/12/13 02:11:15;;;;;;;16.57;8.40;;;;;;;-3.34;68.24;97126.77;1707873;83;20969;-68
2022/12/13 02:13:42;;;;;;;15.23;7.60;;;;;;;-3.39;68.26;97122.37;1685416;82;21589;-68
2022/12/13 02:16:39;;;;;;;12.63;6.80;;;;;;;-3.52;68.68;97127.84;1704860;83;21018;-67
2022/12/13 02:19:31;;;;;;;13.75;8.03;;;;;;;-3.54;68.73;97129.55;1710022;82;21411;-67
2022/12/13 02:22:43;;;;;;;18.55;8.25;;;;;;;-3.62;68.83;97128.13;1709758;82;21561;-68
2022/12/13 02:25:26;;;;;;;15.35;7.72;;;;;;;-3.66;69.12;97138.88;1710558;82;21080;-67
2022/12/13 02:28:26;;;;;;;13.83;7.85;;;;;;;-3.75;69.22;97133.58;1706899;83;21012;-69
2022/12/13 02:30:58;;;;;;;15.03;8.23;;;;;;;-3.76;69.58;97134.44;1709344;83;21009;-68
2022/12/13 02:33:54;;;;;;;14.87;8.10;;;;;;;-3.75;69.62;97139.64;1709289;82;21012;-67
2022/12/13 02:36:38;;;;;;;16.20;8.35;;;;;;;-3.81;69.78;97138.69;1709763;82;20957;-67
2022/12/13 02:39:18;;;;;;;17.60;8.85;;;;;;;-3.88;69.62;97145.49;1696956;82;21064;-67
2022/12/13 02:41:52;;;;;;;16.02;7.58;;;;;;;-3.99;69.76;97146.66;1710103;83;20996;-67
2022/12/13 02:44:31;;;;;;;15.53;8.00;;;;;;;-4.04;69.96;97150.86;1710137;82;21044;-66
2022/12/13 02:47:12;;;;;;;15.55;8.05;;;;;;;-4.11;70.08;97144.31;1705793;83;21024;-68
2022/12/13 02:49:45;;;;;;;15.18;8.53;;;;;;;-4.14;70.17;97154.64;1707092;82;21078;-67
2022/12/13 02:52:16;;;;;;;14.95;7.90;;;;;;;-4.18;70.40;97158.02;1675713;84;21016;-67
2022/12/13 02:54:43;;;;;;;18.98;8.80;;;;;;;-4.18;70.74;97159.31;1711163;83;21505;-67
2022/12/13 02:57:33;;;;;;;17.65;8.55;;;;;;;-4.13;70.84;97158.08;1712324;83;21093;-67
2022/12/13 03:00:17;;;;;;;20.35;9.45;;;;;;;-4.15;70.83;97167.11;1694755;82;21464;-67
2022/12/13 03:03:13;;;;;;;18.95;8.23;;;;;;;-4.19;70.72;97165.76;1710098;82;20969;-68
2022/12/13 03:09:09;;;;;;;17.37;8.45;;;;;;;-4.33;71.09;97166.41;1703853;84;21443;-67
2022/12/13 03:15:28;;;;;;;19.73;9.13;;;;;;;-4.45;71.16;97185.17;1686152;82;21086;-67
2022/12/13 03:18:14;;;;;;;20.75;10.53;;;;;;;-4.53;71.31;97194.54;1695225;82;21012;-68
2022/12/13 03:20:36;;;;;;;19.87;9.15;;;;;;;-4.52;71.63;97195.83;1698547;82;21517;-68
2022/12/13 03:23:05;;;;;;;17.05;9.05;;;;;;;-4.49;71.88;97195.02;1710120;84;21040;-68
2022/12/13 03:25:32;;;;;;;23.47;10.20;;;;;;;-4.49;71.84;97193.72;1682647;82;21032;-68
2022/12/13 03:28:01;;;;;;;20.35;9.45;;;;;;;-4.44;72.14;97196.41;1702225;82;21047;-68
2022/12/13 03:30:27;;;;;;;18.27;9.63;;;;;;;-4.36;72.13;97197.41;1657997;86;20966;-68
2022/12/13 03:32:55;;;;;;;20.32;9.38;;;;;;;-4.31;72.21;97187.13;1647454;85;21078;-68
2022/12/13 03:35:22;;;;;;;19.23;9.45;;;;;;;-4.28;72.57;97193.66;1647471;87;21051;-69
2022/12/13 03:37:49;;;;;;;19.05;9.48;;;;;;;-4.26;72.29;97188.95;1633667;87;21012;-69
2022/12/13 03:40:17;;;;;;;21.10;9.70;;;;;;;-4.21;72.46;97194.19;1647272;85;21023;-69
2022/12/13 03:42:46;;;;;;;19.80;9.13;;;;;;;-4.25;72.11;97193.69;1632595;87;21034;-68
2022/12/13 03:45:15;;;;;;;16.27;8.48;;;;;;;-4.28;72.61;97201.42;1641075;85;21440;-68
2022/12/13 03:47:42;;;;;;;18.30;9.03;;;;;;;-4.29;72.50;97203.13;1637243;87;21433;-69
2022/12/13 03:50:09;;;;;;;13.48;7.33;;;;;;;-4.29;72.50;97200.95;1643718;85;20995;-68
2022/12/13 03:52:36;;;;;;;17.42;7.90;;;;;;;-4.36;73.23;97206.47;1647399;87;21114;-68
2022/12/13 03:55:04;;;;;;;14.70;7.33;;;;;;;-4.49;72.71;97207.09;1648261;87;21464;-68
2022/12/13 03:57:31;;;;;;;15.83;6.87;;;;;;;-4.51;73.08;97203.19;1652667;87;21071;-68
2022/12/13 03:59:57;;;;;;;14.95;6.28;;;;;;;-4.52;73.65;97210.06;1649271;86;21118;-68
2022/12/13 04:02:24;;;;;;;14.58;5.78;;;;;;;-4.67;73.42;97216.25;1637418;85;21069;-68
2022/12/13 04:04:50;;;;;;;11.43;6.05;;;;;;;-4.69;73.19;97221.83;1676502;85;21005;-68
2022/12/13 04:07:18;;;;;;;12.70;6.12;;;;;;;-4.65;73.27;97219.31;1676608;85;21422;-68
2022/12/13 04:09:44;;;;;;;12.33;6.15;;;;;;;-4.66;73.50;97218.87;1676717;85;21002;-68
2022/12/13 04:14:56;;;;;;;17.98;7.37;;;;;;;-4.70;73.11;97224.83;1676850;85;21060;-67
2022/12/13 04:17:22;;;;;;;16.65;8.08;;;;;;;-4.73;73.08;97223.50;1676599;84;21001;-67
2022/12/13 04:19:49;;;;;;;17.70;8.90;;;;;;;-4.74;73.08;97228.64;1662502;85;21443;-67
2022/12/13 04:22:17;;;;;;;18.10;7.70;;;;;;;-4.77;73.36;97226.42;1671052;84;21036;-68
2022/12/13 04:24:44;;;;;;;14.93;7.30;;;;;;;-4.69;73.60;97234.77;1676649;85;21424;-68
2022/12/13 04:27:10;;;;;;;11.48;6.17;;;;;;;-4.66;73.44;97243.84;1676747;84;21009;-68
2022/12/13 04:29:37;;;;;;;11.05;5.33;;;;;;;-4.63;73.64;97243.91;1676585;85;20990;-68
2022/12/13 04:32:04;;;;;;;10.30;5.45;;;;;;;-4.66;73.36;97243.44;1672634;84;21017;-68
2022/12/13 04:34:31;;;;;;;8.55;4.22;;;;;;;-4.72;73.26;97243.74;1630330;87;20992;-68
2022/12/13 04:36:59;;;;;;;9.93;5.58;;;;;;;-4.78;73.30;97249.66;1677370;85;20973;-68
2022/12/13 04:39:25;;;;;;;8.45;4.62;;;;;;;-4.79;73.26;97244.92;1664510;86;21069;-68
2022/12/13 04:41:52;;;;;;;9.08;4.62;;;;;;;-4.80;73.41;97250.95;1655008;85;21379;-68
2022/12/13 04:44:20;;;;;;;11.15;5.17;;;;;;;-4.81;73.52;97252.20;1717590;82;21012;-68
2022/12/13 04:46:47;;;;;;;16.00;5.45;;;;;;;-4.81;73.54;97252.20;1717812;82;21012;-67
2022/12/13 04:49:13;;;;;;;10.32;5.05;;;;;;;-4.73;73.67;97253.64;1717948;82;21060;-67
2022/12/13 04:51:40;;;;;;;10.40;5.10;;;;;;;-4.68;73.74;97260.65;1717663;82;21023;-68
2022/12/13 04:54:06;;;;;;;11.00;5.37;;;;;;;-4.61;73.61;97257.73;1714440;82;21588;-68
2022/12/13 04:56:33;;;;;;;13.00;5.47;;;;;;;-4.61;73.42;97267.22;1676277;84;20997;-68
2022/12/13 04:58:59;;;;;;;11.80;6.35;;;;;;;-4.60;73.42;97268.96;1675614;84;21005;-68
2022/12/13 05:01:26;;;;;;;13.15;6.95;;;;;;;-4.63;73.48;97277.53;1675616;85;21049;-68
2022/12/13 05:03:53;;;;;;;17.57;7.40;;;;;;;-4.70;73.35;97275.25;1649979;87;20976;-69
2022/12/13 05:06:19;;;;;;;16.05;6.95;;;;;;;-4.71;73.37;97274.80;1671235;84;20994;-68
2022/12/13 05:08:46;;;;;;;15.15;6.92;;;;;;;-4.68;73.54;97271.41;1671239;85;21460;-68
2022/12/13 05:11:12;;;;;;;21.35;7.92;;;;;;;-4.67;73.68;97271.84;1671144;85;20970;-68
2022/12/13 05:13:39;;;;;;;16.97;7.65;;;;;;;-4.67;73.87;97268.85;1658289;85;21092;-67
2022/12/13 05:16:07;;;;;;;18.75;8.45;;;;;;;-4.66;73.91;97277.05;1671053;84;21026;-67
2022/12/13 05:18:36;;;;;;;22.45;9.25;;;;;;;-4.64;73.74;97274.50;1671109;85;21089;-67
2022/12/13 05:21:07;;;;;;;17.77;9.15;;;;;;;-4.68;73.90;97264.94;1653219;84;21025;-66
2022/12/13 05:23:34;;;;;;;20.48;10.00;;;;;;;-4.70;73.95;97271.81;1671671;84;20998;-67
2022/12/13 05:26:02;;;;;;;23.67;10.05;;;;;;;-4.66;74.04;97275.77;1671152;85;21069;-67
2022/12/13 05:28:29;;;;;;;19.52;9.03;;;;;;;-4.62;73.88;97278.42;1671381;84;20997;-67
2022/12/13 05:31:00;;;;;;;24.60;10.23;;;;;;;-4.73;73.78;97266.16;1671427;84;21491;-67
2022/12/13 05:33:27;;;;;;;20.30;9.30;;;;;;;-4.78;73.75;97284.15;1669862;84;20983;-68
2022/12/13 05:35:55;;;;;;;19.35;10.00;;;;;;;-4.81;73.97;97280.64;1671248;84;21030;-68
2022/12/13 05:38:21;;;;;;;20.23;9.18;;;;;;;-4.79;74.02;97281.53;1671347;85;21049;-68
2022/12/13 05:40:48;;;;;;;20.23;8.50;;;;;;;-4.78;74.01;97275.09;1661426;84;21066;-67
2022/12/13 05:43:14;;;;;;;20.27;9.90;;;;;;;-4.79;73.85;97279.83;1652828;84;21458;-67
2022/12/13 05:45:41;;;;;;;24.15;11.55;;;;;;;-4.81;74.21;97274.17;1671057;84;21056;-67
2022/12/13 05:48:09;;;;;;;26.45;11.43;;;;;;;-4.79;74.17;97273.36;1670908;84;21022;-67
2022/12/13 05:50:39;;;;;;;26.48;11.93;;;;;;;-4.86;73.89;97275.36;1670707;84;21033;-67
2022/12/13 05:53:06;;;;;;;24.85;11.30;;;;;;;-4.86;74.05;97277.94;1670364;84;21010;-67
2022/12/13 05:55:36;;;;;;;24.37;11.08;;;;;;;-4.87;74.10;97283.96;1671177;85;21435;-68
2022/12/13 05:58:04;;;;;;;27.37;10.60;;;;;;;-4.97;74.02;97285.50;1671555;84;21054;-68
2022/12/13 06:00:30;;;;;;;28.38;10.68;;;;;;;-5.05;73.90;97289.23;1674452;84;21025;-67
2022/12/13 06:02:59;;;;;;;24.95;10.55;;;;;;;-5.10;74.12;97290.84;1670442;85;20978;-67
2022/12/13 06:05:25;;;;;;;28.17;12.20;;;;;;;-5.10;74.27;97296.42;1671554;84;20970;-67
2022/12/13 06:07:54;;;;;;;24.60;9.75;;;;;;;-5.10;74.65;97297.70;1674670;84;21046;-68
2022/12/13 06:10:22;;;;;;;24.45;11.05;;;;;;;-5.11;74.64;97307.59;1646716;86;21009;-68
2022/12/13 06:12:49;;;;;;;22.82;10.93;;;;;;;-5.15;74.79;97306.64;1671229;86;20994;-67
2022/12/13 06:15:15;;;;;;;22.45;10.28;;;;;;;-5.17;74.65;97302.75;1675304;85;20997;-67
2022/12/13 06:17:42;;;;;;;25.55;9.88;;;;;;;-5.20;74.73;97309.13;1674993;84;21041;-67
2022/12/13 06:20:10;;;;;;;21.87;10.65;;;;;;;-5.14;74.87;97306.23;1670224;85;21062;-68
2022/12/13 06:22:36;;;;;;;24.07;10.78;;;;;;;-5.13;74.80;97314.42;1724615;83;21020;-67
2022/12/13 06:25:04;;;;;;;25.48;9.98;;;;;;;-5.17;74.55;97319.95;1709104;82;20997;-66
2022/12/13 06:27:30;;;;;;;20.55;10.13;;;;;;;-5.21;74.93;97315.55;1709879;82;21013;-67
2022/12/13 06:29:57;;;;;;;25.20;10.20;;;;;;;-5.20;75.14;97320.77;1707959;82;21000;-67
2022/12/13 06:32:24;;;;;;;25.17;12.03;;;;;;;-5.25;74.97;97327.54;1709829;83;21415;-67
2022/12/13 06:34:52;;;;;;;33.23;12.53;;;;;;;-5.31;75.11;97326.97;1708023;82;20989;-68
2022/12/13 06:37:19;;;;;;;26.95;12.10;;;;;;;-5.28;75.18;97332.63;1710918;82;21483;-68
2022/12/13 06:39:47;;;;;;;22.17;10.45;;;;;;;-5.31;74.93;97342.47;1707741;83;21012;-68
2022/12/13 06:42:17;;;;;;;27.02;11.60;;;;;;;-5.32;75.22;97341.17;1704187;83;21343;-67
2022/12/13 06:44:43;;;;;;;23.15;10.88;;;;;;;-5.36;75.07;97340.20;1704719;82;20985;-69
2022/12/13 06:47:10;;;;;;;23.22;11.97;;;;;;;-5.38;75.25;97350.05;1711580;83;20964;-68
2022/12/13 06:49:37;;;;;;;24.45;11.08;;;;;;;-5.35;75.28;97347.11;1713739;83;20967;-68
2022/12/13 06:52:04;;;;;;;27.62;11.90;;;;;;;-5.31;75.49;97352.80;1713402;82;21055;-68
2022/12/13 06:54:31;;;;;;;27.93;11.90;;;;;;;-5.22;75.76;97351.27;1713573;83;21000;-67
2022/12/13 06:56:59;;;;;;;23.18;10.35;;;;;;;-5.10;75.60;97353.27;1707610;82;21044;-66
2022/12/13 06:59:25;;;;;;;22.30;10.82;;;;;;;-5.02;75.79;97356.02;1708919;82;21103;-67
2022/12/13 07:01:53;;;;;;;22.90;10.70;;;;;;;-4.94;75.58;97357.91;1709573;83;21028;-68
2022/12/13 07:04:20;;;;;;;21.60;10.15;;;;;;;-4.88;75.49;97359.77;1706160;82;21017;-68
2022/12/13 07:06:46;;;;;;;30.05;12.85;;;;;;;-4.86;75.23;97353.34;1701890;83;21004;-68
2022/12/13 07:09:13;;;;;;;29.20;11.55;;;;;;;-4.84;74.96;97355.53;1710074;82;21029;-69
2022/12/13 07:11:39;;;;;;;27.07;11.65;;;;;;;-4.88;74.91;97346.84;1709808;83;20969;-68
2022/12/13 07:14:06;;;;;;;26.68;13.13;;;;;;;-4.84;75.17;97346.48;1704252;82;21438;-69
2022/12/13 07:16:32;;;;;;;26.68;11.40;;;;;;;-4.84;75.13;97351.25;1706960;84;21001;-68
2022/12/13 07:19:01;;;;;;;29.32;13.30;;;;;;;-4.80;75.35;97354.34;1704331;82;20985;-67
2022/12/13 07:21:29;;;;;;;25.08;11.75;;;;;;;-4.74;75.28;97360.48;1687186;82;21399;-67
2022/12/13 07:23:57;;;;;;;25.50;11.88;;;;;;;-4.76;74.76;97363.03;1689222;82;21791;-68
2022/12/13 07:26:24;;;;;;;23.25;11.70;;;;;;;-4.82;74.93;97370.67;1707905;82;20966;-68
2022/12/13 07:28:53;;;;;;;27.27;11.68;;;;;;;-4.81;75.09;97362.92;1709693;83;21005;-69
2022/12/13 07:31:20;;;;;;;25.80;12.05;;;;;;;-4.82;74.94;97369.38;1709727;82;20989;-69
2022/12/13 07:33:46;;;;;;;24.50;12.33;;;;;;;-4.78;75.24;97371.16;1709254;82;20993;-69
2022/12/13 07:36:17;;;;;;;25.48;11.95;;;;;;;-4.74;75.18;97378.14;1710100;82;20958;-69
2022/12/13 07:38:44;;;;;;;26.70;12.75;;;;;;;-4.69;75.15;97379.55;1706109;83;21620;-68
2022/12/13 07:41:11;;;;;;;25.45;12.95;;;;;;;-4.65;75.07;97379.64;1709698;82;20993;-69
2022/12/13 07:43:37;;;;;;;27.50;12.80;;;;;;;-4.57;75.18;97385.41;1710140;83;20969;-68
2022/12/13 07:46:07;;;;;;;31.55;12.88;;;;;;;-4.51;75.26;97382.94;1715209;82;21008;-70
2022/12/13 07:48:35;;;;;;;25.10;13.10;;;;;;;-4.43;75.22;97380.09;1682542;82;21024;-68
2022/12/13 07:51:05;;;;;;;30.52;11.65;;;;;;;-4.32;75.20;97380.72;1707521;84;21071;-69
2022/12/13 07:53:33;;;;;;;31.90;12.50;;;;;;;-4.25;75.17;97378.28;1707623;83;21422;-69
2022/12/13 07:56:04;;;;;;;26.73;12.37;;;;;;;-4.18;74.88;97387.03;1707414;82;21037;-69
2022/12/13 07:58:32;;;;;;;26.45;11.95;;;;;;;-4.13;74.89;97384.11;1669778;84;21056;-68
2022/12/13 08:01:03;;;;;;;22.93;11.38;;;;;;;-4.04;74.96;97392.45;1682129;85;21101;-70
2022/12/13 08:03:30;;;;;;;33.90;11.53;;;;;;;-3.96;74.97;97387.42;1682895;85;21431;-68
2022/12/13 08:06:10;;;;;;;21.35;11.50;;;;;;;-3.93;74.68;97384.90;1683027;84;20992;-68
2022/12/13 08:08:37;;;;;;;22.87;10.08;;;;;;;-3.87;74.60;97395.36;1683458;84;21043;-69
2022/12/13 08:11:08;;;;;;;22.20;10.35;;;;;;;-3.85;74.46;97391.50;1683286;85;21032;-69
2022/12/13 08:13:35;;;;;;;21.87;10.63;;;;;;;-3.76;74.57;97396.85;1682863;85;20953;-69
2022/12/13 08:16:08;;;;;;;22.17;10.65;;;;;;;-3.73;73.97;97393.00;1678332;84;21402;-68
2022/12/13 08:18:35;;;;;;;26.00;11.68;;;;;;;-3.68;74.14;97403.45;1683426;84;21011;-68
2022/12/13 08:21:04;;;;;;;24.32;11.00;;;;;;;-3.60;74.11;97407.47;1664615;85;21076;-68
2022/12/13 08:23:33;;;;;;;21.45;9.83;;;;;;;-3.53;73.82;97407.16;1674935;85;21048;-69
2022/12/13 08:26:02;;;;;;;18.60;10.45;;;;;;;-3.54;73.59;97415.34;1683131;84;21057;-68
2022/12/13 08:28:33;;;;;;;19.00;10.75;;;;;;;-3.43;73.96;97406.88;1683143;84;21068;-68
2022/12/13 08:31:13;;;;;;;21.05;10.10;;;;;;;-3.36;73.85;97414.77;1683388;85;21008;-69
2022/12/13 08:33:42;;;;;;;21.90;10.55;;;;;;;-3.32;73.85;97413.98;1683344;84;21016;-68
2022/12/13 08:36:11;;;;;;;21.97;10.35;;;;;;;-3.22;73.76;97419.31;1683259;85;21056;-67
2022/12/13 08:38:38;;;;;;;16.37;9.10;;;;;;;-3.15;73.72;97416.39;1680960;84;20961;-68
2022/12/13 08:41:05;;;;;;;18.00;9.28;;;;;;;-3.03;73.90;97413.12;1684176;84;21027;-68
2022/12/13 08:43:32;;;;;;;16.60;8.55;;;;;;;-2.94;73.57;97408.08;1683334;84;21026;-68
2022/12/13 08:46:00;;;;;;;17.70;9.30;;;;;;;-2.90;73.39;97410.28;1683477;85;21009;-68
2022/12/13 08:48:28;;;;;;;17.35;9.30;;;;;;;-2.84;73.39;97403.88;1683601;84;21012;-68
2022/12/13 08:51:04;;;;;;;16.85;9.00;;;;;;;-2.74;73.33;97406.19;1683273;85;21080;-68
2022/12/13 08:53:30;;;;;;;16.65;8.83;;;;;;;-2.69;73.06;97399.34;1682121;85;21008;-68
2022/12/13 08:56:09;;;;;;;15.60;7.22;;;;;;;-2.63;72.61;97402.01;1683236;85;21009;-68
2022/12/13 08:58:37;;;;;;;16.52;8.78;;;;;;;-2.58;72.12;97389.11;1669428;85;21064;-68
2022/12/13 09:01:08;;;;;;;21.60;10.23;;;;;;;-2.50;71.98;97383.58;1679357;84;21005;-68
2022/12/13 09:03:36;;;;;;;19.07;10.53;;;;;;;-2.42;71.74;97387.56;1668857;85;21024;-68
2022/12/13 09:06:15;;;;;;;18.05;10.03;;;;;;;-2.39;71.82;97385.02;1683691;84;20996;-68
2022/12/13 09:08:43;;;;;;;16.67;9.25;;;;;;;-2.33;71.86;97379.89;1683296;85;21053;-68
2022/12/13 09:11:11;;;;;;;17.98;9.65;;;;;;;-2.29;71.35;97374.30;1681715;84;20957;-69
2022/12/13 09:13:39;;;;;;;19.50;11.25;;;;;;;-2.23;71.15;97374.39;1683418;85;20965;-68
2022/12/13 09:16:13;;;;;;;20.80;10.65;;;;;;;-2.15;71.38;97374.48;1683303;85;21009;-69
2022/12/13 09:18:41;;;;;;;25.88;11.03;;;;;;;-2.06;71.21;97374.99;1683601;84;21056;-68
2022/12/13 09:21:10;;;;;;;28.60;13.88;;;;;;;-1.99;71.21;97369.02;1661543;85;21005;-68
2022/12/13 09:23:37;;;;;;;21.93;11.73;;;;;;;-1.94;70.64;97375.55;1681515;84;21407;-68
2022/12/13 09:26:04;;;;;;;23.18;10.65;;;;;;;-1.87;70.44;97369.58;1669178;85;21021;-68
2022/12/13 09:28:31;;;;;;;18.73;10.78;;;;;;;-1.91;70.08;97367.35;1683591;84;21016;-68
2022/12/13 09:30:57;;;;;;;17.00;9.20;;;;;;;-1.86;70.56;97365.67;1683338;84;21482;-68
2022/12/13 09:33:24;;;;;;;16.45;9.35;;;;;;;-1.77;70.58;97364.91;1683364;85;21005;-67
2022/12/13 09:35:51;;;;;;;19.65;10.80;;;;;;;-1.71;70.45;97369.27;1683498;84;21004;-67
2022/12/13 09:38:19;;;;;;;19.98;9.08;;;;;;;-1.65;70.11;97374.55;1669506;84;21033;-68
2022/12/13 09:40:48;;;;;;;18.55;8.63;;;;;;;-1.59;70.31;97371.11;1671434;84;21012;-68
2022/12/13 09:43:20;;;;;;;15.13;8.15;;;;;;;-1.53;69.89;97376.80;1618979;86;21478;-69
2022/12/13 09:45:49;;;;;;;23.07;10.80;;;;;;;-1.50;69.61;97371.64;1638996;86;21529;-69
2022/12/13 09:48:19;;;;;;;17.20;8.88;;;;;;;-1.41;69.72;97376.03;1615253;87;21056;-68
2022/12/13 09:50:47;;;;;;;14.43;8.38;;;;;;;-1.37;68.59;97366.96;1615123;87;21043;-69
2022/12/13 09:53:18;;;;;;;16.15;8.85;;;;;;;-1.35;68.53;97364.37;1615194;87;21094;-68
2022/12/13 09:55:51;;;;;;;18.40;7.42;;;;;;;-1.38;68.23;97372.14;1600646;87;20965;-69
2022/12/13 09:58:28;;;;;;;13.65;7.37;;;;;;;-1.39;68.12;97361.31;1643575;85;21033;-70
2022/12/13 10:00:56;;;;;;;14.93;7.67;;;;;;;-1.38;68.16;97367.83;1655584;85;21059;-68
2022/12/13 10:03:25;;;;;;;13.83;7.12;;;;;;;-1.38;68.40;97360.44;1655673;85;21048;-68
2022/12/13 10:06:01;;;;;;;13.70;8.18;;;;;;;-1.30;67.72;97360.53;1655582;85;21103;-68
2022/12/13 10:08:42;;;;;;;15.05;8.13;;;;;;;-1.26;68.45;97357.06;1625254;86;21048;-68
2022/12/13 10:11:15;;;;;;;14.90;8.75;;;;;;;-1.23;67.58;97356.69;1649608;85;21029;-69
2022/12/13 10:13:49;;;;;;;18.90;9.75;;;;;;;-1.16;68.03;97364.52;1663296;84;21024;-69
2022/12/13 10:16:48;;;;;;;19.65;10.18;;;;;;;-1.16;66.21;97358.02;1659246;84;21554;-69
2022/12/13 10:19:36;;;;;;;16.97;9.65;;;;;;;-1.09;67.87;97362.38;1707215;82;21041;-68
2022/12/13 10:22:07;;;;;;;19.32;8.43;;;;;;;-1.05;66.97;97356.34;1702709;83;21048;-68
2022/12/13 10:25:03;;;;;;;19.82;9.63;;;;;;;-1.03;67.36;97349.86;1715571;82;20996;-69
2022/12/13 10:27:41;;;;;;;17.70;10.00;;;;;;;-0.94;67.50;97349.92;1658409;82;20958;-69
2022/12/13 10:30:21;;;;;;;17.82;9.35;;;;;;;-0.83;67.11;97352.59;1714805;82;21383;-69
2022/12/13 10:32:52;;;;;;;19.52;9.63;;;;;;;-0.77;67.09;97342.21;1700166;82;20977;-69
2022/12/13 10:35:38;;;;;;;17.55;9.60;;;;;;;-0.67;67.19;97349.20;1715867;82;21064;-69
2022/12/13 10:38:17;;;;;;;17.60;9.43;;;;;;;-0.59;67.30;97342.72;1711112;82;21023;-69
2022/12/13 10:40:44;;;;;;;17.27;9.53;;;;;;;-0.24;67.69;97341.55;1714629;82;20993;-69
2022/12/13 10:43:32;;;;;;;15.18;9.10;;;;;;;0.40;65.31;97349.03;1715364;82;21072;-68
2022/12/13 10:46:02;;;;;;;17.57;9.33;;;;;;;1.17;64.30;97342.87;1713521;82;21458;-69
2022/12/13 10:48:43;;;;;;;16.60;9.75;;;;;;;2.17;63.21;97326.77;1715352;82;21004;-68
2022/12/13 10:51:14;;;;;;;20.05;10.05;;;;;;;2.79;60.65;97328.45;1714293;82;21005;-68
2022/12/13 10:53:54;;;;;;;18.57;10.20;;;;;;;3.75;59.45;97327.84;1713503;84;20992;-69
2022/12/13 10:56:25;;;;;;;17.92;10.28;;;;;;;4.62;60.86;97316.09;1715337;82;20985;-69
2022/12/13 10:59:19;;;;;;;16.60;9.88;;;;;;;5.42;57.53;97311.58;1715943;82;21040;-68
2022/12/13 11:01:46;;;;;;;17.80;9.63;;;;;;;6.20;55.85;97304.23;1700625;82;21027;-69
2022/12/13 11:04:28;;;;;;;12.90;8.95;;;;;;;6.52;47.86;97300.89;1717898;82;21367;-69
2022/12/13 11:06:59;;;;;;;17.37;9.83;;;;;;;5.73;48.23;97289.91;1717899;82;21000;-68
2022/12/13 11:09:32;;;;;;;13.88;8.68;;;;;;;5.40;51.32;97293.20;1708543;83;21032;-68
2022/12/13 11:12:03;;;;;;;15.45;8.53;;;;;;;5.89;53.52;97293.51;1716657;83;20989;-68
2022/12/13 11:14:33;;;;;;;17.87;9.58;;;;;;;6.73;50.55;97296.87;1716323;82;20977;-69
2022/12/13 11:17:07;;;;;;;14.58;9.35;;;;;;;7.40;45.98;97295.95;1717903;82;21032;-69
2022/12/13 11:19:48;;;;;;;11.83;8.43;;;;;;;8.05;47.93;97299.80;1688747;83;21021;-69
2022/12/13 11:22:31;;;;;;;13.48;9.05;;;;;;;8.23;45.22;97286.08;1706045;83;21001;-68
2022/12/13 11:25:22;;;;;;;10.13;7.80;;;;;;;8.29;43.49;97286.75;1715726;82;21020;-68
2022/12/13 11:28:21;;;;;;;14.10;8.58;;;;;;;7.73;46.28;97295.02;1700962;82;20996;-67
2022/12/13 11:31:34;;;;;;;12.70;8.15;;;;;;;6.93;47.58;97292.38;1717254;82;21044;-67
2022/12/13 11:34:54;;;;;;;11.10;7.78;;;;;;;6.50;47.10;97298.73;1717864;83;21000;-68
2022/12/13 11:37:46;;;;;;;27.87;18.80;;;;;;;5.43;48.43;97291.43;1716077;82;20997;-68
2022/12/13 11:40:30;;;;;;;12.85;8.05;;;;;;;4.49;49.37;97300.53;1717412;82;21020;-68
2022/12/13 11:43:22;;;;;;;14.15;7.65;;;;;;;3.87;49.99;97307.16;1717858;82;21035;-68
2022/12/13 11:45:56;;;;;;;11.08;6.95;;;;;;;3.16;50.23;97304.07;1717580;83;21009;-69
2022/12/13 11:48:47;;;;;;;10.08;6.62;;;;;;;2.68;51.53;97302.37;1717876;82;20976;-69
2022/12/13 11:51:19;;;;;;;11.25;6.78;;;;;;;2.26;52.53;97304.91;1688702;82;21423;-69